createdAt,value
2018-07-09T00:00:43.571Z,17.13
2018-07-09T00:03:12.883Z,17.09
2018-07-09T00:05:42.188Z,17.04
2018-07-09T00:08:11.337Z,17.00
2018-07-09T00:10:52.713Z,16.92
2018-07-09T00:13:21.278Z,16.89
2018-07-09T00:15:49.333Z,16.87
2018-07-09T00:18:17.483Z,16.83
2018-07-09T00:20:45.849Z,16.79
2018-07-09T00:23:14.452Z,16.77
2018-07-09T00:25:42.591Z,16.77
2018-07-09T00:28:10.652Z,16.75
2018-07-09T00:30:38.753Z,16.71
2018-07-09T00:33:07.044Z,16.67
2018-07-09T00:35:35.136Z,16.62
2018-07-09T00:38:03.665Z,16.56
2018-07-09T00:40:32.072Z,16.51
2018-07-09T00:43:00.288Z,16.47
2018-07-09T00:45:28.486Z,16.42
2018-07-09T00:47:56.840Z,16.37
2018-07-09T00:50:25.029Z,16.33
2018-07-09T00:52:53.301Z,16.29
2018-07-09T00:55:21.772Z,16.24
2018-07-09T00:57:50.472Z,16.16
2018-07-09T01:00:18.598Z,16.12
2018-07-09T01:02:46.668Z,16.09
2018-07-09T01:05:14.739Z,16.05
2018-07-09T01:07:42.794Z,16.01
2018-07-09T01:10:10.878Z,15.95
2018-07-09T01:12:38.951Z,15.94
2018-07-09T01:15:06.997Z,15.92
2018-07-09T01:17:35.117Z,15.88
2018-07-09T01:20:03.196Z,15.85
2018-07-09T01:22:31.223Z,15.82
2018-07-09T01:24:59.317Z,15.81
2018-07-09T01:27:27.399Z,15.78
2018-07-09T01:30:15.880Z,15.75
2018-07-09T01:32:43.952Z,15.72
2018-07-09T01:35:12.835Z,15.71
2018-07-09T01:37:41.561Z,15.68
2018-07-09T01:40:09.771Z,15.66
2018-07-09T01:42:38.126Z,15.67
2018-07-09T01:45:06.251Z,15.68
2018-07-09T01:47:34.324Z,15.66
2018-07-09T01:50:02.496Z,15.62
2018-07-09T01:52:31.097Z,15.59
2018-07-09T01:54:59.227Z,15.60
2018-07-09T01:57:27.376Z,15.56
2018-07-09T01:59:55.440Z,15.47
2018-07-09T02:02:23.640Z,15.38
2018-07-09T02:04:51.689Z,15.36
2018-07-09T02:07:19.744Z,15.37
2018-07-09T02:09:47.787Z,15.36
2018-07-09T02:12:15.856Z,15.33
2018-07-09T02:14:43.903Z,15.27
2018-07-09T02:17:11.963Z,15.20
2018-07-09T02:19:40.001Z,15.09
2018-07-09T02:22:08.074Z,15.06
2018-07-09T02:24:36.137Z,15.04
2018-07-09T02:27:04.607Z,15.03
2018-07-09T02:29:32.720Z,15.02
2018-07-09T02:32:00.991Z,14.97
2018-07-09T02:34:29.184Z,14.95
2018-07-09T02:36:57.533Z,14.94
2018-07-09T02:39:25.948Z,14.90
2018-07-09T02:41:54.303Z,14.84
2018-07-09T02:44:22.682Z,14.77
2018-07-09T02:46:51.110Z,14.69
2018-07-09T02:49:19.796Z,14.64
2018-07-09T02:51:48.236Z,14.62
2018-07-09T02:54:16.467Z,14.55
2018-07-09T02:56:44.681Z,14.53
2018-07-09T02:59:12.776Z,14.52
2018-07-09T03:01:40.808Z,14.45
2018-07-09T03:04:08.980Z,14.42
2018-07-09T03:06:37.044Z,14.40
2018-07-09T03:09:05.797Z,14.33
2018-07-09T03:11:35.124Z,14.31
2018-07-09T03:14:03.243Z,14.30
2018-07-09T03:16:31.403Z,14.25
2018-07-09T03:18:59.515Z,14.18
2018-07-09T03:21:27.756Z,14.14
2018-07-09T03:23:56.121Z,14.12
2018-07-09T03:26:24.387Z,14.15
2018-07-09T03:28:52.829Z,14.19
2018-07-09T03:31:21.101Z,14.19
2018-07-09T03:33:49.688Z,14.17
2018-07-09T03:36:18.700Z,14.16
2018-07-09T03:38:47.028Z,14.11
2018-07-09T03:41:15.065Z,14.15
2018-07-09T03:43:43.131Z,14.17
2018-07-09T03:46:11.264Z,14.18
2018-07-09T03:48:39.307Z,14.20
2018-07-09T03:51:07.395Z,14.20
2018-07-09T03:53:36.418Z,14.21
2018-07-09T03:56:04.523Z,14.22
2018-07-09T03:58:32.617Z,14.21
2018-07-09T04:01:00.639Z,14.26
2018-07-09T04:03:28.709Z,14.29
2018-07-09T04:05:56.910Z,14.33
2018-07-09T04:08:24.961Z,14.32
2018-07-09T04:10:53.259Z,14.31
2018-07-09T04:13:21.327Z,14.35
2018-07-09T04:15:49.383Z,14.35
2018-07-09T04:18:17.465Z,14.42
2018-07-09T04:20:45.562Z,14.42
2018-07-09T04:23:13.591Z,14.38
2018-07-09T04:25:41.648Z,14.47
2018-07-09T04:28:09.711Z,14.61
2018-07-09T04:30:37.904Z,14.92
2018-07-09T04:33:06.033Z,15.75
2018-07-09T04:35:34.088Z,16.86
2018-07-09T04:38:02.152Z,17.89
2018-07-09T04:40:30.376Z,18.73
2018-07-09T04:42:58.614Z,19.56
2018-07-09T04:45:26.669Z,20.31
2018-07-09T04:47:54.964Z,20.98
2018-07-09T04:50:22.997Z,21.85
2018-07-09T04:52:51.120Z,22.61
2018-07-09T04:55:19.478Z,23.34
2018-07-09T04:57:47.923Z,23.77
2018-07-09T05:00:16.188Z,24.22
2018-07-09T05:02:45.154Z,24.80
2018-07-09T05:05:13.254Z,25.16
2018-07-09T05:07:42.963Z,25.50
2018-07-09T05:10:11.042Z,25.84
2018-07-09T05:12:39.867Z,25.77
2018-07-09T05:15:07.923Z,25.27
2018-07-09T05:17:36.107Z,25.71
2018-07-09T05:20:04.238Z,26.00
2018-07-09T05:22:32.303Z,26.27
2018-07-09T05:25:00.400Z,26.31
2018-07-09T05:27:28.580Z,26.58
2018-07-09T05:29:56.903Z,26.51
2018-07-09T05:32:25.126Z,26.69
2018-07-09T05:34:53.485Z,27.17
2018-07-09T05:37:21.687Z,27.41
2018-07-09T05:39:50.189Z,26.38
2018-07-09T05:42:18.298Z,26.89
2018-07-09T05:44:48.128Z,26.51
2018-07-09T05:47:16.216Z,27.18
2018-07-09T05:49:44.413Z,27.32
2018-07-09T05:52:12.496Z,27.85
2018-07-09T05:54:40.555Z,27.70
2018-07-09T05:57:08.661Z,28.13
2018-07-09T05:59:36.757Z,28.29
2018-07-09T06:02:04.840Z,28.55
2018-07-09T06:04:32.907Z,28.82
2018-07-09T06:07:01.012Z,28.51
2018-07-09T06:09:29.097Z,28.84
2018-07-09T06:11:57.171Z,28.67
2018-07-09T06:14:25.256Z,28.82
2018-07-09T06:16:53.305Z,28.84
2018-07-09T06:19:21.367Z,28.40
2018-07-09T06:21:50.072Z,28.36
2018-07-09T06:24:18.144Z,28.83
2018-07-09T06:26:46.267Z,28.47
2018-07-09T06:29:14.335Z,29.06
2018-07-09T06:31:42.412Z,29.60
2018-07-09T06:34:10.448Z,29.19
2018-07-09T06:36:38.620Z,29.48
2018-07-09T06:39:07.428Z,29.41
2018-07-09T06:41:35.502Z,29.98
2018-07-09T06:44:03.612Z,29.42
2018-07-09T06:46:32.091Z,28.39
2018-07-09T06:49:00.176Z,27.65
2018-07-09T06:51:28.271Z,28.31
2018-07-09T06:53:56.307Z,28.40
2018-07-09T06:56:24.460Z,27.29
2018-07-09T06:58:52.522Z,26.79
2018-07-09T07:01:20.571Z,27.36
2018-07-09T07:03:48.615Z,28.54
2018-07-09T07:06:16.682Z,28.95
2018-07-09T07:08:44.776Z,27.88
2018-07-09T07:11:12.805Z,27.10
2018-07-09T07:13:40.865Z,26.77
2018-07-09T07:16:08.920Z,25.76
2018-07-09T07:18:37.003Z,25.12
2018-07-09T07:21:05.136Z,24.74
2018-07-09T07:23:33.155Z,24.57
2018-07-09T07:26:01.200Z,24.49
2018-07-09T07:28:29.262Z,24.55
2018-07-09T07:30:57.325Z,24.94
2018-07-09T07:33:25.371Z,25.31
2018-07-09T07:35:54.492Z,25.40
2018-07-09T07:38:22.540Z,25.47
2018-07-09T07:40:50.605Z,25.62
2018-07-09T07:43:18.743Z,25.58
2018-07-09T07:45:46.863Z,25.49
2018-07-09T07:48:15.036Z,25.12
2018-07-09T07:50:43.108Z,25.15
2018-07-09T07:53:11.188Z,25.15
2018-07-09T07:55:39.396Z,25.22
2018-07-09T07:58:07.513Z,25.18
2018-07-09T08:00:35.593Z,25.13
2018-07-09T08:03:03.748Z,24.52
2018-07-09T08:05:31.793Z,24.16
2018-07-09T08:07:59.851Z,24.33
2018-07-09T08:10:27.921Z,24.25
2018-07-09T08:13:27.163Z,24.65
2018-07-09T08:15:24.178Z,25.14
2018-07-09T08:17:52.248Z,25.50
2018-07-09T08:20:20.333Z,25.81
2018-07-09T08:22:48.406Z,25.90
2018-07-09T08:25:16.497Z,24.58
2018-07-09T08:27:44.571Z,24.51
2018-07-09T08:30:12.691Z,25.14
2018-07-09T08:32:40.776Z,25.60
2018-07-09T08:35:08.839Z,26.08
2018-07-09T08:37:37.024Z,26.29
2018-07-09T08:40:05.078Z,26.45
2018-07-09T08:42:33.227Z,25.82
2018-07-09T08:45:01.342Z,25.39
2018-07-09T08:47:29.495Z,25.64
2018-07-09T08:49:57.487Z,25.73
2018-07-09T08:52:25.570Z,26.01
2018-07-09T08:54:53.655Z,25.99
2018-07-09T08:57:21.822Z,25.97
2018-07-09T08:59:50.023Z,26.18
2018-07-09T09:02:18.160Z,25.95
2018-07-09T09:04:46.354Z,26.07
2018-07-09T09:07:14.648Z,26.42
2018-07-09T09:09:42.709Z,26.56
2018-07-09T09:12:10.841Z,26.50
2018-07-09T09:14:38.912Z,25.99
2018-07-09T09:17:07.082Z,24.98
2018-07-09T09:19:35.137Z,24.26
2018-07-09T09:22:04.102Z,24.72
2018-07-09T09:24:32.204Z,25.00
2018-07-09T09:27:00.445Z,24.96
2018-07-09T09:29:28.484Z,24.29
2018-07-09T09:31:56.592Z,24.44
2018-07-09T09:34:25.140Z,23.79
2018-07-09T09:36:53.523Z,23.68
2018-07-09T09:39:21.599Z,23.67
2018-07-09T09:41:49.679Z,23.57
2018-07-09T09:44:17.735Z,22.92
2018-07-09T09:46:45.800Z,22.94
2018-07-09T09:49:13.913Z,22.63
2018-07-09T09:51:42.246Z,22.77
2018-07-09T09:54:10.294Z,22.99
2018-07-09T09:56:38.388Z,23.25
2018-07-09T09:59:06.460Z,23.88
2018-07-09T10:01:34.552Z,23.82
2018-07-09T10:04:02.826Z,23.56
2018-07-09T10:06:30.908Z,23.83
2018-07-09T10:08:59.005Z,24.15
2018-07-09T10:11:27.283Z,24.44
2018-07-09T10:13:55.349Z,24.38
2018-07-09T10:16:23.524Z,24.35
2018-07-09T10:18:51.741Z,24.04
2018-07-09T10:21:20.096Z,24.14
2018-07-09T10:23:48.456Z,24.24
2018-07-09T10:26:17.136Z,24.17
2018-07-09T10:28:46.603Z,24.40
2018-07-09T10:31:16.076Z,24.21
2018-07-09T10:33:44.223Z,24.53
2018-07-09T10:36:13.912Z,24.34
2018-07-09T10:38:42.044Z,24.00
2018-07-09T10:41:11.952Z,23.86
2018-07-09T10:43:40.483Z,24.03
2018-07-09T10:46:08.900Z,24.01
2018-07-09T10:48:37.584Z,23.74
2018-07-09T10:51:06.368Z,23.87
2018-07-09T10:53:34.500Z,23.41
2018-07-09T10:56:03.524Z,23.40
2018-07-09T10:58:32.698Z,22.69
2018-07-09T11:01:01.330Z,22.21
2018-07-09T11:03:31.432Z,22.02
2018-07-09T11:06:00.077Z,21.95
2018-07-09T11:08:28.263Z,22.14
2018-07-09T11:10:56.643Z,22.17
2018-07-09T11:13:24.763Z,22.45
2018-07-09T11:15:52.907Z,22.34
2018-07-09T11:18:20.983Z,22.26
2018-07-09T11:20:49.256Z,22.08
2018-07-09T11:23:18.489Z,21.72
2018-07-09T11:25:47.967Z,21.96
2018-07-09T11:28:16.542Z,22.04
2018-07-09T11:30:45.203Z,22.29
2018-07-09T11:33:13.638Z,22.34
2018-07-09T11:35:41.712Z,22.10
2018-07-09T11:38:09.853Z,21.95
2018-07-09T11:40:38.181Z,22.12
2018-07-09T11:43:06.293Z,22.27
2018-07-09T11:45:34.368Z,22.66
2018-07-09T11:48:02.459Z,22.83
2018-07-09T11:50:30.786Z,22.52
2018-07-09T11:52:59.080Z,22.77
2018-07-09T11:55:27.483Z,23.05
2018-07-09T11:57:55.751Z,23.17
2018-07-09T12:00:24.183Z,23.53
2018-07-09T12:02:52.898Z,23.91
2018-07-09T12:05:21.786Z,24.16
2018-07-09T12:07:50.715Z,24.04
2018-07-09T12:10:20.251Z,24.12
2018-07-09T12:12:49.752Z,24.23
2018-07-09T12:15:19.434Z,24.25
2018-07-09T12:17:54.161Z,24.29
2018-07-09T12:20:23.129Z,24.33
2018-07-09T12:22:53.237Z,24.29
2018-07-09T12:25:21.315Z,24.17
2018-07-09T12:27:50.556Z,24.26
2018-07-09T12:30:18.744Z,24.45
2018-07-09T12:32:46.922Z,24.70
2018-07-09T12:35:15.500Z,24.87
2018-07-09T12:37:43.588Z,24.67
2018-07-09T12:40:11.993Z,24.67
2018-07-09T12:42:40.202Z,24.82
2018-07-09T12:45:09.056Z,24.67
2018-07-09T12:47:37.176Z,24.71
2018-07-09T12:50:05.400Z,24.71
2018-07-09T12:52:33.556Z,24.89
2018-07-09T12:55:01.679Z,24.74
2018-07-09T12:57:30.483Z,24.39
2018-07-09T12:59:58.764Z,24.78
2018-07-09T13:02:27.064Z,24.81
2018-07-09T13:04:55.458Z,25.19
2018-07-09T13:07:23.805Z,25.39
2018-07-09T13:09:51.903Z,25.18
2018-07-09T13:12:25.274Z,25.19
2018-07-09T13:14:54.946Z,25.24
2018-07-09T13:17:23.165Z,25.42
2018-07-09T13:19:52.287Z,25.37
2018-07-09T13:22:20.592Z,24.52
2018-07-09T13:24:48.731Z,25.23
2018-07-09T13:27:18.021Z,25.10
2018-07-09T13:29:46.788Z,24.91
2018-07-09T13:32:14.946Z,25.27
2018-07-09T13:34:43.384Z,25.54
2018-07-09T13:37:11.679Z,25.35
2018-07-09T13:39:40.066Z,25.59
2018-07-09T13:42:08.144Z,25.74
2018-07-09T13:44:36.457Z,25.84
2018-07-09T13:47:11.181Z,25.99
2018-07-09T13:49:40.696Z,26.03
2018-07-09T13:52:08.811Z,25.85
2018-07-09T13:54:37.288Z,25.43
2018-07-09T13:57:05.339Z,25.25
2018-07-09T13:59:34.145Z,24.98
2018-07-09T14:02:02.777Z,24.51
2018-07-09T14:04:31.359Z,24.42
2018-07-09T14:06:59.627Z,24.15
2018-07-09T14:09:28.015Z,24.18
2018-07-09T14:11:56.124Z,23.92
2018-07-09T14:14:25.022Z,23.76
2018-07-09T14:16:53.153Z,23.50
2018-07-09T14:20:32.823Z,23.32
2018-07-09T14:23:01.711Z,23.34
2018-07-09T14:25:30.044Z,23.37
2018-07-09T14:27:58.555Z,23.52
2018-07-09T14:30:26.733Z,23.70
2018-07-09T14:32:54.864Z,23.75
2018-07-09T14:35:22.952Z,23.68
2018-07-09T14:37:51.126Z,23.65
2018-07-09T14:40:19.317Z,23.46
2018-07-09T14:42:48.883Z,23.75
2018-07-09T14:45:18.089Z,23.98
2018-07-09T14:47:46.099Z,23.60
2018-07-09T14:50:14.211Z,23.58
2018-07-09T14:52:42.478Z,23.63
2018-07-09T14:55:10.515Z,23.60
2018-07-09T14:57:38.571Z,23.55
2018-07-09T15:00:07.087Z,23.11
2018-07-09T15:02:35.444Z,23.29
2018-07-09T15:05:03.505Z,23.39
2018-07-09T15:07:31.604Z,23.35
2018-07-09T15:10:00.010Z,23.22
2018-07-09T15:12:28.077Z,23.13
2018-07-09T15:14:56.468Z,23.10
2018-07-09T15:17:24.767Z,23.04
2018-07-09T15:19:52.899Z,23.16
2018-07-09T15:22:21.018Z,23.00
2018-07-09T15:24:49.116Z,23.03
2018-07-09T15:27:17.262Z,23.16
2018-07-09T15:29:45.575Z,23.37
2018-07-09T15:32:24.959Z,23.69
2018-07-09T15:34:53.155Z,23.66
2018-07-09T15:37:21.244Z,23.81
2018-07-09T15:39:49.361Z,23.70
2018-07-09T15:42:17.428Z,23.58
2018-07-09T15:44:45.545Z,23.33
2018-07-09T15:47:13.595Z,23.48
2018-07-09T15:49:42.454Z,23.50
2018-07-09T15:52:10.499Z,23.45
2018-07-09T15:54:38.597Z,23.37
2018-07-09T15:57:06.668Z,23.27
2018-07-09T15:59:34.795Z,23.03
2018-07-09T16:02:02.872Z,22.88
2018-07-09T16:04:31.035Z,22.83
2018-07-09T16:06:59.230Z,22.69
2018-07-09T16:09:27.496Z,22.65
2018-07-09T16:11:55.584Z,22.52
2018-07-09T16:14:23.763Z,22.37
2018-07-09T16:16:51.864Z,22.03
2018-07-09T16:19:19.929Z,21.92
2018-07-09T16:21:47.998Z,21.83
2018-07-09T16:24:16.250Z,21.75
2018-07-09T16:26:44.413Z,21.59
2018-07-09T16:29:12.694Z,21.66
2018-07-09T16:31:40.714Z,21.84
2018-07-09T16:34:09.032Z,21.75
2018-07-09T16:36:37.143Z,21.89
2018-07-09T16:39:06.177Z,21.89
2018-07-09T16:41:34.720Z,21.88
2018-07-09T16:44:02.804Z,21.80
2018-07-09T16:46:30.905Z,21.94
2018-07-09T16:48:59.006Z,22.00
2018-07-09T16:51:27.000Z,21.99
2018-07-09T16:53:55.071Z,21.99
2018-07-09T16:56:23.136Z,21.87
2018-07-09T16:58:51.321Z,21.78
2018-07-09T17:01:19.421Z,21.84
2018-07-09T17:03:47.464Z,21.56
2018-07-09T17:06:15.582Z,21.58
2018-07-09T17:08:44.255Z,21.47
2018-07-09T17:11:12.863Z,21.66
2018-07-09T17:13:42.301Z,21.70
2018-07-09T17:16:10.474Z,21.66
2018-07-09T17:18:38.547Z,21.78
2018-07-09T17:21:06.789Z,21.65
2018-07-09T17:23:34.908Z,21.62
2018-07-09T17:26:03.052Z,21.68
2018-07-09T17:28:32.171Z,21.67
2018-07-09T17:31:00.284Z,21.57
2018-07-09T17:33:29.440Z,21.83
2018-07-09T17:35:57.574Z,21.66
2018-07-09T17:38:25.659Z,21.43
2018-07-09T17:40:54.086Z,21.44
2018-07-09T17:43:22.179Z,21.02
2018-07-09T17:45:51.236Z,20.77
2018-07-09T17:48:21.862Z,20.58
2018-07-09T17:50:50.494Z,20.14
2018-07-09T17:53:18.696Z,20.24
2018-07-09T17:55:46.770Z,20.29
2018-07-09T17:58:14.861Z,20.45
2018-07-09T18:00:43.100Z,20.50
2018-07-09T18:03:11.224Z,20.11
2018-07-09T18:05:39.368Z,20.16
2018-07-09T18:08:07.478Z,20.15
2018-07-09T18:10:35.551Z,20.00
2018-07-09T18:13:03.567Z,19.94
2018-07-09T18:15:31.663Z,19.96
2018-07-09T18:17:59.716Z,20.01
2018-07-09T18:20:27.800Z,20.05
2018-07-09T18:22:55.847Z,20.03
2018-07-09T18:25:24.352Z,19.93
2018-07-09T18:27:52.814Z,19.98
2018-07-09T18:30:21.686Z,19.82
2018-07-09T18:32:49.877Z,19.69
2018-07-09T18:35:18.814Z,19.80
2018-07-09T18:37:47.280Z,19.53
2018-07-09T18:40:16.423Z,19.65
2018-07-09T18:42:44.612Z,19.43
2018-07-09T18:45:12.700Z,19.40
2018-07-09T18:47:40.853Z,19.42
2018-07-09T18:50:08.963Z,19.18
2018-07-09T18:52:37.577Z,19.32
2018-07-09T18:55:06.262Z,19.42
2018-07-09T18:57:34.675Z,19.17
2018-07-09T19:00:02.923Z,19.13
2018-07-09T19:02:31.824Z,19.01
2018-07-09T19:05:00.347Z,19.10
2018-07-09T19:07:29.015Z,18.90
2018-07-09T19:09:57.381Z,18.85
2018-07-09T19:12:29.692Z,18.85
2018-07-09T19:14:57.850Z,19.03
2018-07-09T19:18:04.358Z,18.97
2018-07-09T19:20:43.875Z,18.93
2018-07-09T19:23:11.579Z,18.69
2018-07-09T19:25:39.072Z,18.67
2018-07-09T19:28:07.417Z,18.63
2018-07-09T19:30:34.575Z,18.68
2018-07-09T19:33:01.660Z,18.65
2018-07-09T19:35:29.138Z,18.58
2018-07-09T19:37:56.702Z,18.53
2018-07-09T19:40:23.665Z,18.46
2018-07-09T19:42:51.378Z,18.47
2018-07-09T19:45:18.896Z,18.44
2018-07-09T19:47:46.595Z,18.39
2018-07-09T19:50:13.743Z,18.40
2018-07-09T19:52:40.856Z,18.26
2018-07-09T19:55:07.955Z,18.27
2018-07-09T19:57:35.015Z,18.28
2018-07-09T20:00:02.085Z,18.33
2018-07-09T20:02:29.690Z,18.30
2018-07-09T20:04:57.376Z,18.34
2018-07-09T20:07:25.479Z,18.31
2018-07-09T20:09:57.971Z,18.30
2018-07-09T20:12:30.400Z,18.31
2018-07-09T20:16:05.361Z,18.25
2018-07-09T20:18:32.507Z,18.21
2018-07-09T20:20:59.657Z,18.18
2018-07-09T20:23:26.808Z,18.09
2018-07-09T20:25:53.924Z,17.92
2018-07-09T20:28:21.615Z,17.99
2018-07-09T20:30:48.723Z,17.94
2018-07-09T20:33:16.164Z,17.91
2018-07-09T20:35:43.673Z,17.88
2018-07-09T20:38:10.810Z,17.64
2018-07-09T20:40:39.235Z,17.74
2018-07-09T20:43:06.590Z,17.59
2018-07-09T20:45:34.017Z,17.51
2018-07-09T20:48:01.219Z,17.55
2018-07-09T20:50:28.441Z,17.54
2018-07-09T20:52:55.667Z,17.51
2018-07-09T20:55:22.849Z,17.55
2018-07-09T20:57:50.115Z,17.54
2018-07-09T21:00:17.489Z,17.54
2018-07-09T21:02:44.627Z,17.40
2018-07-09T21:05:11.762Z,17.15
2018-07-09T21:07:38.866Z,17.16
2018-07-09T21:10:06.059Z,17.24
2018-07-09T21:12:37.395Z,17.09
2018-07-09T21:15:04.992Z,17.03
2018-07-09T21:17:32.078Z,17.05
2018-07-09T21:19:59.605Z,17.10
2018-07-09T21:22:26.776Z,16.92
2018-07-09T21:24:53.988Z,16.90
2018-07-09T21:27:21.148Z,16.74
2018-07-09T21:29:48.344Z,16.83
2018-07-09T21:32:15.481Z,16.84
2018-07-09T21:34:42.656Z,16.79
2018-07-09T21:37:10.128Z,16.69
2018-07-09T21:39:37.224Z,16.70
2018-07-09T21:42:04.332Z,16.72
2018-07-09T21:44:31.424Z,16.84
2018-07-09T21:46:58.523Z,16.80
2018-07-09T21:49:25.640Z,16.86
2018-07-09T21:51:52.911Z,16.84
2018-07-09T21:54:20.297Z,16.77
2018-07-09T21:56:47.502Z,16.68
2018-07-09T21:59:14.692Z,16.57
2018-07-09T22:01:41.842Z,16.47
2018-07-09T22:04:08.957Z,16.44
2018-07-09T22:06:36.068Z,16.58
2018-07-09T22:09:06.900Z,16.63
2018-07-09T22:11:35.323Z,16.57
2018-07-09T22:14:02.412Z,16.56
2018-07-09T22:16:29.572Z,16.36
2018-07-09T22:18:56.750Z,16.39
2018-07-09T22:21:23.933Z,16.47
2018-07-09T22:23:51.284Z,16.58
2018-07-09T22:26:18.456Z,16.62
2018-07-09T22:28:45.562Z,16.62
2018-07-09T22:31:13.652Z,16.67
2018-07-09T22:33:42.014Z,16.71
2018-07-09T22:36:10.088Z,16.74
2018-07-09T22:38:38.156Z,16.75
2018-07-09T22:41:06.298Z,16.74
2018-07-09T22:43:45.790Z,16.70
2018-07-09T22:46:13.876Z,16.73
2018-07-09T22:48:41.972Z,16.70
2018-07-09T22:51:10.090Z,16.70
2018-07-09T22:53:38.127Z,16.74
2018-07-09T22:56:10.816Z,16.76
2018-07-09T22:58:40.156Z,16.78
2018-07-09T23:01:08.287Z,16.66
2018-07-09T23:03:36.335Z,16.59
2018-07-09T23:06:04.612Z,16.57
2018-07-09T23:08:32.679Z,16.60
2018-07-09T23:11:44.916Z,16.63
2018-07-09T23:16:35.144Z,16.54
2018-07-09T23:19:20.979Z,16.46
2018-07-09T23:22:28.795Z,16.42
2018-07-09T23:24:56.085Z,16.41
2018-07-09T23:27:23.245Z,16.28
2018-07-09T23:29:50.617Z,16.28
2018-07-09T23:32:17.846Z,16.13
2018-07-09T23:34:45.032Z,16.17
2018-07-09T23:37:12.264Z,16.12
2018-07-09T23:39:39.391Z,16.19
2018-07-09T23:42:06.467Z,16.14
2018-07-09T23:44:33.556Z,16.10
2018-07-09T23:47:00.635Z,16.09
2018-07-09T23:49:27.824Z,16.07
2018-07-09T23:51:55.004Z,16.08
2018-07-09T23:54:22.277Z,16.07
2018-07-09T23:59:05.333Z,15.99
